Time;durP1;ratioP1;P1;durP2;ratioP2;P2;SDS_P1;SDS_P2;PMS_P1;PMS_P2;Temp;Humidity;BMP_temperature;BMP_pressure;BME280_temperature;BME280_humidity;BME280_pressure;Samples;Min_cycle;Max_cycle;Signal;HPM_P1;HPM_P2
2022/07/25 00:02:07;;;;;;;8.53;4.87;;;;;;;22.41;63.69;101106.69;5043645;28;20122;-74
2022/07/25 00:04:32;;;;;;;5.83;4.57;;;;;;;22.42;63.75;101105.59;5035854;28;20029;-73
2022/07/25 00:06:57;;;;;;;4.83;4.33;;;;;;;22.38;63.90;101098.84;5032041;28;20041;-73
2022/07/25 00:09:23;;;;;;;14.70;4.77;;;;;;;22.29;64.26;101104.09;5030820;28;20451;-74
2022/07/25 00:11:48;;;;;;;5.20;4.53;;;;;;;22.30;64.69;101102.16;5032280;28;20048;-73
2022/07/25 00:14:13;;;;;;;6.67;4.57;;;;;;;22.32;64.46;101100.78;5032382;28;20163;-73
2022/07/25 00:16:39;;;;;;;12.50;5.10;;;;;;;22.24;64.47;101106.03;5040093;28;20430;-73
2022/07/25 00:19:04;;;;;;;12.43;5.03;;;;;;;22.16;64.53;101093.41;5046263;28;20033;-73
2022/07/25 00:21:29;;;;;;;6.27;4.67;;;;;;;22.17;65.61;101088.63;5044519;28;20388;-74
2022/07/25 00:23:55;;;;;;;6.80;4.67;;;;;;;22.05;65.46;101080.47;5032069;28;20033;-73
2022/07/25 00:26:20;;;;;;;5.53;4.50;;;;;;;21.95;65.39;101082.31;5030510;28;20037;-74
2022/07/25 00:28:45;;;;;;;8.67;5.20;;;;;;;21.79;65.76;101086.06;5031115;28;20036;-73
2022/07/25 00:31:10;;;;;;;9.17;5.23;;;;;;;21.71;66.95;101092.16;5032089;28;20117;-74
2022/07/25 00:33:36;;;;;;;5.50;4.90;;;;;;;21.64;66.58;101081.16;5030029;28;20033;-73
2022/07/25 00:36:01;;;;;;;8.17;5.00;;;;;;;21.59;67.66;101083.06;5031765;28;20039;-73
2022/07/25 00:38:26;;;;;;;15.57;4.70;;;;;;;21.49;68.40;101080.16;5033748;28;20029;-75
2022/07/25 00:40:52;;;;;;;7.10;4.97;;;;;;;21.52;67.89;101074.94;5045162;28;20032;-74
2022/07/25 00:43:17;;;;;;;10.27;5.17;;;;;;;21.52;68.21;101088.88;5029306;28;20026;-73
2022/07/25 00:45:42;;;;;;;5.87;4.77;;;;;;;21.48;68.20;101070.97;5031054;28;20091;-73
2022/07/25 00:48:08;;;;;;;5.33;4.43;;;;;;;21.47;68.28;101071.22;5030005;28;20491;-73
2022/07/25 00:50:34;;;;;;;8.30;5.60;;;;;;;21.43;68.92;101065.34;5032164;28;20097;-76
2022/07/25 00:53:00;;;;;;;7.45;4.88;;;;;;;21.34;69.29;101055.75;5045111;28;20119;-75
2022/07/25 00:55:25;;;;;;;6.83;4.93;;;;;;;21.37;70.50;101057.19;5045699;28;20116;-76
2022/07/25 00:57:51;;;;;;;5.80;4.90;;;;;;;21.35;69.90;101060.22;5034934;28;20096;-76
2022/07/25 01:00:17;;;;;;;12.27;5.43;;;;;;;21.36;71.18;101052.72;5034094;28;20041;-74
2022/07/25 01:02:45;;;;;;;8.25;5.55;;;;;;;21.31;69.53;101052.66;5035088;28;20032;-75
2022/07/25 01:05:11;;;;;;;6.93;5.40;;;;;;;21.22;70.82;101054.22;5035910;28;20388;-76
2022/07/25 01:07:38;;;;;;;5.70;5.10;;;;;;;21.15;70.82;101048.03;5039778;28;20108;-76
2022/07/25 01:10:03;;;;;;;;;;;;;;;21.16;71.14;101039.41;5038782;28;20087;-75
2022/07/25 01:12:28;;;;;;;7.13;5.10;;;;;;;21.02;70.74;101028.94;5035000;28;19920;-74
2022/07/25 01:14:54;;;;;;;5.87;5.00;;;;;;;21.09;71.79;101029.56;5038249;28;20036;-76
2022/07/25 01:17:19;;;;;;;6.83;5.57;;;;;;;21.04;71.08;101030.34;5031439;28;20025;-75
2022/07/25 01:19:46;;;;;;;5.73;5.17;;;;;;;21.00;71.49;101026.41;5033368;28;20089;-76
2022/07/25 01:22:11;;;;;;;11.30;5.35;;;;;;;20.98;71.42;101025.81;5036123;28;20380;-76
2022/07/25 01:24:38;;;;;;;9.00;5.37;;;;;;;20.89;72.36;101018.19;5031884;28;20049;-76
2022/07/25 01:27:03;;;;;;;9.45;5.07;;;;;;;20.95;72.52;101022.69;5036044;28;20063;-76
2022/07/25 01:29:29;;;;;;;8.03;5.43;;;;;;;20.84;72.35;101018.94;5035528;28;20045;-75
2022/07/25 01:31:54;;;;;;;6.30;4.73;;;;;;;20.76;73.14;101016.59;5036962;28;20535;-75
2022/07/25 01:34:19;;;;;;;6.50;4.83;;;;;;;20.75;72.39;101014.91;5035302;28;20127;-76
2022/07/25 01:36:45;;;;;;;8.37;5.47;;;;;;;20.69;74.01;101006.75;5041272;28;20047;-76
2022/07/25 01:39:10;;;;;;;5.93;4.73;;;;;;;20.79;73.92;100999.38;5046779;28;20435;-76
2022/07/25 01:41:36;;;;;;;5.67;5.07;;;;;;;20.76;73.80;101004.63;5046524;28;20048;-75
2022/07/25 01:44:01;;;;;;;6.22;4.63;;;;;;;20.73;72.60;101005.13;5031344;28;20041;-76
2022/07/25 01:46:26;;;;;;;7.07;5.03;;;;;;;20.72;73.27;101003.47;5032318;28;20074;-75
2022/07/25 01:48:52;;;;;;;6.80;4.93;;;;;;;20.61;73.63;100998.88;5035892;28;20091;-75
2022/07/25 01:51:17;;;;;;;13.20;5.10;;;;;;;20.60;74.35;100995.22;5033770;28;20033;-74
2022/07/25 01:53:43;;;;;;;6.70;5.20;;;;;;;20.57;74.13;101000.47;5036741;28;20450;-76
2022/07/25 01:56:08;;;;;;;6.27;4.67;;;;;;;20.59;73.51;101003.88;5046184;28;20037;-76
2022/07/25 01:58:34;;;;;;;8.00;5.00;;;;;;;20.58;73.49;100993.81;5033255;28;20457;-75
2022/07/25 02:00:59;;;;;;;8.20;5.17;;;;;;;20.55;74.72;100991.56;5034800;28;20278;-75
2022/07/25 02:03:30;;;;;;;8.80;4.73;;;;;;;20.62;73.87;100981.91;5030948;28;20064;-74
2022/07/25 02:06:05;;;;;;;5.82;4.50;;;;;;;20.61;73.48;100973.81;5040012;28;20047;-75
2022/07/25 02:08:30;;;;;;;8.00;4.75;;;;;;;20.54;73.95;100967.63;5045818;28;20029;-75
2022/07/25 02:10:56;;;;;;;5.07;4.30;;;;;;;20.49;74.44;100973.13;5050249;28;20033;-74
2022/07/25 02:13:22;;;;;;;7.53;5.55;;;;;;;20.55;74.27;100960.94;5043866;28;20436;-75
2022/07/25 02:15:47;;;;;;;5.17;4.53;;;;;;;20.47;73.45;100966.94;5030285;28;20032;-75
2022/07/25 02:18:13;;;;;;;8.63;5.20;;;;;;;20.43;73.89;100954.66;5034456;28;20021;-75
2022/07/25 02:20:38;;;;;;;8.53;5.20;;;;;;;20.45;73.78;100960.81;5032517;28;20430;-76
2022/07/25 02:23:04;;;;;;;6.40;4.43;;;;;;;20.40;74.36;100960.75;5033111;28;20037;-76
2022/07/25 02:25:30;;;;;;;7.00;4.18;;;;;;;20.40;73.32;100955.16;5032164;28;20461;-76
2022/07/25 02:27:55;;;;;;;6.17;5.33;;;;;;;20.33;74.07;100957.31;5033760;28;20045;-76
2022/07/25 02:30:21;;;;;;;6.77;5.10;;;;;;;20.37;73.41;100952.91;5036301;28;20281;-75
2022/07/25 02:32:46;;;;;;;11.03;4.83;;;;;;;20.31;73.93;100957.56;5034091;28;20603;-71
2022/07/25 02:35:11;;;;;;;6.30;4.90;;;;;;;20.24;74.30;100944.94;5032956;28;20092;-74
2022/07/25 02:37:37;;;;;;;10.83;5.27;;;;;;;20.17;73.98;100944.31;5031839;28;20036;-70
2022/07/25 02:40:03;;;;;;;12.37;5.17;;;;;;;20.19;75.61;100944.88;5039135;28;20021;-71
2022/07/25 02:42:28;;;;;;;11.73;4.78;;;;;;;20.19;75.26;100942.09;5033814;28;20072;-70
2022/07/25 02:44:54;;;;;;;6.10;5.07;;;;;;;20.12;75.84;100949.78;5033928;28;20120;-70
2022/07/25 02:47:19;;;;;;;9.23;5.23;;;;;;;20.07;75.88;100944.16;5031114;28;20389;-72
2022/07/25 02:49:44;;;;;;;6.50;4.93;;;;;;;20.08;75.85;100932.78;5026993;28;20146;-70
2022/07/25 02:52:10;;;;;;;7.80;5.37;;;;;;;20.09;75.69;100928.03;5034684;28;20874;-72
2022/07/25 02:54:35;;;;;;;5.97;4.87;;;;;;;20.12;73.85;100924.75;5032276;28;20089;-70
2022/07/25 02:57:00;;;;;;;11.40;5.73;;;;;;;20.10;75.21;100915.81;5035274;28;20460;-71
2022/07/25 02:59:25;;;;;;;6.13;4.97;;;;;;;20.13;75.41;100920.88;5027810;28;20096;-72
2022/07/25 03:01:51;;;;;;;5.90;5.20;;;;;;;20.12;75.26;100919.19;5029368;28;20044;-70
2022/07/25 03:04:16;;;;;;;11.43;5.37;;;;;;;20.19;74.94;100917.91;5037414;28;20030;-74
2022/07/25 03:06:41;;;;;;;6.70;5.57;;;;;;;20.12;75.96;100919.19;5029446;28;20469;-73
2022/07/25 03:09:07;;;;;;;6.43;5.33;;;;;;;20.13;75.57;100912.53;5044618;28;20025;-71
2022/07/25 03:11:33;;;;;;;9.53;5.10;;;;;;;20.14;75.00;100928.09;5038565;28;20033;-72
2022/07/25 03:13:58;;;;;;;5.22;4.47;;;;;;;20.08;74.27;100924.44;5040869;28;20030;-71
2022/07/25 03:16:24;;;;;;;6.40;4.90;;;;;;;20.15;74.10;100921.44;5033630;28;20519;-73
2022/07/25 03:18:49;;;;;;;6.07;4.40;;;;;;;20.11;74.98;100909.16;5037903;28;20034;-71
2022/07/25 03:21:15;;;;;;;12.00;5.20;;;;;;;20.07;74.92;100910.78;5035002;28;20056;-74
2022/07/25 03:23:40;;;;;;;7.47;5.33;;;;;;;20.11;75.17;100914.72;5034774;28;20106;-71
2022/07/25 03:26:05;;;;;;;7.60;4.97;;;;;;;20.08;74.00;100918.88;5028979;28;20080;-71
2022/07/25 03:28:31;;;;;;;10.50;4.57;;;;;;;20.07;73.79;100919.13;5029982;28;20057;-70
2022/07/25 03:30:56;;;;;;;5.50;4.30;;;;;;;20.07;74.13;100917.16;5033224;28;20023;-70
2022/07/25 03:33:22;;;;;;;9.03;5.00;;;;;;;20.26;74.48;100914.91;5027345;28;20036;-73
2022/07/25 03:35:47;;;;;;;6.60;4.70;;;;;;;20.26;73.47;100920.47;5030337;28;20142;-74
2022/07/25 03:38:13;;;;;;;5.93;4.47;;;;;;;20.24;74.56;100919.91;5032027;28;20132;-73
2022/07/25 03:40:38;;;;;;;7.50;5.27;;;;;;;20.23;74.46;100915.44;5042023;28;20029;-74
2022/07/25 03:43:04;;;;;;;6.83;4.37;;;;;;;20.25;73.68;100924.34;5040846;28;20046;-73
2022/07/25 03:45:29;;;;;;;12.17;5.50;;;;;;;20.28;75.04;100923.84;5027251;28;20393;-74
2022/07/25 03:47:54;;;;;;;11.30;6.40;;;;;;;20.40;74.49;100924.56;5035731;28;20116;-74
2022/07/25 03:50:20;;;;;;;10.33;6.23;;;;;;;20.44;74.54;100937.69;5033206;28;20091;-74
2022/07/25 03:52:45;;;;;;;7.00;6.10;;;;;;;20.64;73.89;100928.75;5027886;28;20204;-74
2022/07/25 03:55:11;;;;;;;8.37;5.43;;;;;;;20.69;73.64;100926.00;5028345;28;20088;-74
2022/07/25 03:57:37;;;;;;;11.07;6.07;;;;;;;20.73;73.35;100929.97;5029709;28;20101;-74
2022/07/25 04:00:04;;;;;;;10.18;6.85;;;;;;;20.78;73.08;100935.59;5029194;28;20033;-74
2022/07/25 04:02:30;;;;;;;8.35;6.32;;;;;;;20.69;73.29;100926.88;5037048;28;20037;-74
2022/07/25 04:04:55;;;;;;;9.37;6.63;;;;;;;20.79;72.71;100937.25;5037713;28;20094;-73
2022/07/25 04:07:20;;;;;;;9.73;6.20;;;;;;;20.81;72.21;100930.31;5047738;28;20100;-74
2022/07/25 04:09:45;;;;;;;8.93;5.80;;;;;;;20.89;71.41;100923.47;5045959;28;20050;-74
2022/07/25 04:12:11;;;;;;;8.60;5.97;;;;;;;20.95;70.63;100930.78;5044066;28;20037;-75
2022/07/25 04:14:37;;;;;;;12.95;6.32;;;;;;;20.99;70.43;100918.88;5029934;28;20029;-74
2022/07/25 04:17:02;;;;;;;15.93;6.37;;;;;;;20.91;70.53;100926.88;5036278;28;20025;-74
2022/07/25 04:19:27;;;;;;;9.93;6.30;;;;;;;21.01;70.63;100918.59;5030587;28;20032;-74
2022/07/25 04:21:52;;;;;;;14.33;6.77;;;;;;;20.99;70.37;100918.88;5034040;28;20037;-73
2022/07/25 04:24:18;;;;;;;9.00;6.07;;;;;;;20.98;70.35;100921.91;5035093;28;20091;-73
2022/07/25 04:26:43;;;;;;;10.93;5.70;;;;;;;21.02;70.30;100909.16;5034215;28;20090;-73
2022/07/25 04:29:08;;;;;;;10.70;6.00;;;;;;;21.04;70.41;100918.94;5033610;28;20112;-75
2022/07/25 04:31:34;;;;;;;9.97;6.10;;;;;;;20.99;70.59;100910.50;5035184;28;20029;-74
2022/07/25 04:33:59;;;;;;;7.13;5.40;;;;;;;20.96;71.26;100915.78;5029846;28;20045;-73
2022/07/25 04:36:25;;;;;;;9.70;6.27;;;;;;;20.93;70.95;100928.28;5030861;28;20181;-75
2022/07/25 04:38:51;;;;;;;6.90;6.07;;;;;;;20.95;71.25;100919.63;5030325;28;20026;-74
2022/07/25 04:41:16;;;;;;;9.65;5.68;;;;;;;20.96;71.11;100918.56;5031497;28;20041;-73
2022/07/25 04:43:42;;;;;;;7.70;4.90;;;;;;;21.01;70.95;100913.00;5032033;28;20044;-74
2022/07/25 04:46:07;;;;;;;13.97;5.60;;;;;;;20.99;70.82;100915.22;5040765;28;20044;-74
2022/07/25 04:48:32;;;;;;;12.07;6.27;;;;;;;21.05;70.41;100920.59;5035237;28;20029;-74
2022/07/25 04:50:58;;;;;;;7.10;4.77;;;;;;;21.18;70.12;100920.16;5031521;28;20041;-74
2022/07/25 04:53:23;;;;;;;15.13;4.80;;;;;;;21.20;70.28;100912.38;5040849;28;20039;-74
2022/07/25 04:55:49;;;;;;;14.77;4.83;;;;;;;21.24;69.99;100918.25;5049095;28;20127;-73
2022/07/25 04:58:14;;;;;;;19.30;4.83;;;;;;;21.26;69.54;100913.25;5028266;28;20051;-74
2022/07/25 05:00:40;;;;;;;9.98;4.65;;;;;;;21.37;68.98;100912.22;5043682;28;20066;-72
2022/07/25 05:03:06;;;;;;;13.00;3.80;;;;;;;21.40;68.71;100917.28;5031926;28;20024;-75
2022/07/25 05:05:31;;;;;;;5.67;3.93;;;;;;;21.50;68.36;100903.44;5032220;28;20033;-74
2022/07/25 05:07:58;;;;;;;6.30;3.60;;;;;;;21.50;68.15;100909.00;5032130;28;20032;-74
2022/07/25 05:10:25;;;;;;;7.20;3.53;;;;;;;21.52;67.75;100909.56;5030281;28;20112;-73
2022/07/25 05:12:50;;;;;;;7.00;2.85;;;;;;;21.49;67.54;100913.72;5032388;28;20118;-74
2022/07/25 05:15:16;;;;;;;9.97;3.00;;;;;;;21.49;67.79;100905.38;5030343;28;20033;-72
2022/07/25 05:17:42;;;;;;;3.93;2.40;;;;;;;21.58;67.16;100922.44;5032803;28;20081;-73
2022/07/25 05:20:08;;;;;;;3.55;2.33;;;;;;;21.65;66.93;100925.81;5029395;28;20025;-73
2022/07/25 05:22:33;;;;;;;7.10;3.05;;;;;;;21.61;66.84;100919.13;5028635;28;20556;-75
2022/07/25 05:25:01;;;;;;;2.90;2.17;;;;;;;21.53;67.01;100914.88;5050641;28;20033;-73
2022/07/25 05:27:26;;;;;;;8.15;2.78;;;;;;;21.50;67.69;100923.78;5036622;28;20468;-74
2022/07/25 05:29:52;;;;;;;5.78;2.15;;;;;;;21.53;67.77;100925.19;5044804;28;20113;-74
2022/07/25 05:32:17;;;;;;;3.97;2.70;;;;;;;21.67;67.50;100932.81;5035577;28;20039;-73
2022/07/25 05:34:42;;;;;;;2.77;2.20;;;;;;;21.59;67.39;100932.47;5042216;28;20041;-74
2022/07/25 05:37:08;;;;;;;3.93;2.03;;;;;;;21.61;67.27;100935.84;5035076;28;20025;-75
2022/07/25 05:39:33;;;;;;;4.67;1.77;;;;;;;21.63;67.41;100933.63;5046309;28;20048;-74
2022/07/25 05:42:00;;;;;;;7.33;2.10;;;;;;;21.55;67.94;100931.34;5032106;28;20426;-73
2022/07/25 05:44:25;;;;;;;13.27;2.67;;;;;;;21.66;68.14;100933.13;5046403;28;20052;-75
2022/07/25 05:46:50;;;;;;;4.07;1.87;;;;;;;21.60;67.85;100934.19;5039190;28;20042;-75
2022/07/25 05:49:16;;;;;;;7.03;2.00;;;;;;;21.71;67.74;100930.41;5041623;28;20032;-74
2022/07/25 05:51:41;;;;;;;7.10;2.00;;;;;;;21.72;67.61;100926.50;5045953;28;20025;-74
2022/07/25 05:54:06;;;;;;;6.20;1.50;;;;;;;21.69;67.96;100929.81;5028905;28;20508;-75
2022/07/25 05:56:32;;;;;;;6.67;2.00;;;;;;;21.63;67.87;100928.06;5028985;28;20485;-74
2022/07/25 05:58:57;;;;;;;4.73;1.90;;;;;;;21.70;68.37;100928.69;5029306;28;20103;-74
2022/07/25 06:01:22;;;;;;;6.33;1.77;;;;;;;21.64;68.48;100932.53;5041748;28;20056;-74
2022/07/25 06:03:48;;;;;;;4.77;1.73;;;;;;;21.64;68.53;100930.59;5044425;28;20026;-76
2022/07/25 06:06:14;;;;;;;4.90;1.97;;;;;;;21.64;68.57;100938.09;5037644;28;20027;-75
2022/07/25 06:08:39;;;;;;;14.73;2.35;;;;;;;21.61;69.12;100924.72;5045832;28;20029;-75
2022/07/25 06:11:06;;;;;;;9.57;1.80;;;;;;;21.60;69.25;100936.97;5048741;28;20037;-76
2022/07/25 06:13:32;;;;;;;7.20;1.58;;;;;;;21.61;69.39;100935.84;5037561;28;20037;-75
2022/07/25 06:15:57;;;;;;;6.50;2.28;;;;;;;21.67;69.37;100929.22;5033266;28;20029;-75
2022/07/25 06:18:23;;;;;;;9.00;1.90;;;;;;;21.81;68.91;100938.81;5034487;28;20051;-75
2022/07/25 06:20:49;;;;;;;7.15;2.30;;;;;;;21.70;69.35;100940.69;5031266;28;20037;-74
2022/07/25 06:23:15;;;;;;;4.17;1.53;;;;;;;21.75;69.48;100937.94;5032827;28;20396;-75
2022/07/25 06:25:40;;;;;;;8.27;2.20;;;;;;;21.72;69.62;100937.66;5025873;28;20030;-74
2022/07/25 06:28:06;;;;;;;5.33;2.00;;;;;;;21.68;69.90;100940.13;5029409;28;20388;-74
2022/07/25 06:30:31;;;;;;;13.07;2.13;;;;;;;21.64;70.32;100940.88;5034035;28;20029;-75
2022/07/25 06:32:56;;;;;;;4.77;1.50;;;;;;;21.62;70.53;100943.13;5038579;28;20496;-75
2022/07/25 06:35:22;;;;;;;8.57;1.80;;;;;;;21.73;70.42;100950.47;5027876;28;20489;-74
2022/07/25 06:37:47;;;;;;;7.07;2.10;;;;;;;21.80;70.43;100956.66;5032224;28;20047;-74
2022/07/25 06:40:13;;;;;;;10.83;2.13;;;;;;;21.83;71.26;100961.72;5034301;28;20029;-74
2022/07/25 06:42:41;;;;;;;8.73;1.70;;;;;;;21.78;71.51;100954.13;5030285;28;20026;-74
2022/07/25 06:45:10;;;;;;;9.25;1.50;;;;;;;21.87;71.48;100949.75;5031153;28;20041;-74
2022/07/25 06:47:40;;;;;;;5.18;1.63;;;;;;;21.98;71.27;100951.47;5030800;28;20052;-73
2022/07/25 06:50:07;;;;;;;8.32;2.13;;;;;;;21.98;71.25;100950.66;5033403;28;20051;-73
2022/07/25 06:52:33;;;;;;;8.13;1.90;;;;;;;21.98;71.46;100951.47;5039130;28;20059;-74
2022/07/25 06:54:58;;;;;;;11.30;2.07;;;;;;;21.95;71.29;100962.34;5029905;28;20045;-73
2022/07/25 06:57:24;;;;;;;8.00;1.80;;;;;;;22.01;71.34;100958.47;5036341;28;20025;-72
2022/07/25 06:59:49;;;;;;;7.63;1.87;;;;;;;21.97;71.47;100947.03;5037769;28;20045;-76
2022/07/25 07:02:14;;;;;;;18.67;2.33;;;;;;;22.01;71.50;100950.97;5039359;28;20033;-73
2022/07/25 07:04:40;;;;;;;7.17;1.73;;;;;;;22.05;71.12;100951.25;5028622;28;20032;-74
2022/07/25 07:07:05;;;;;;;12.50;2.17;;;;;;;22.13;71.02;100945.16;5037669;28;20033;-73
2022/07/25 07:09:30;;;;;;;15.40;2.30;;;;;;;22.17;70.98;100954.66;5038762;28;20203;-74
2022/07/25 07:11:56;;;;;;;16.23;2.40;;;;;;;22.35;70.21;100943.06;5043508;28;20028;-76
2022/07/25 07:14:21;;;;;;;8.40;1.70;;;;;;;22.41;69.75;100945.56;5027459;28;20527;-75
2022/07/25 07:16:46;;;;;;;8.40;2.10;;;;;;;22.40;69.85;100952.28;5037174;28;20037;-76
2022/07/25 07:19:13;;;;;;;14.47;1.80;;;;;;;22.53;70.17;100940.66;5029368;28;20056;-75
2022/07/25 07:21:39;;;;;;;9.77;1.75;;;;;;;22.53;70.21;100945.41;5032665;28;20048;-75
2022/07/25 07:24:04;;;;;;;11.83;1.80;;;;;;;22.61;70.31;100953.22;5043722;28;20076;-75
2022/07/25 07:26:29;;;;;;;8.57;1.80;;;;;;;22.74;69.47;100952.75;5033949;28;20057;-76
2022/07/25 07:28:55;;;;;;;3.63;1.90;;;;;;;22.69;68.99;100961.09;5026354;28;20034;-74
2022/07/25 07:31:20;;;;;;;11.90;2.87;;;;;;;22.83;69.17;100962.28;5037485;28;20035;-73
2022/07/25 07:33:46;;;;;;;17.07;1.83;;;;;;;22.74;68.92;100963.91;5027294;28;20061;-74
2022/07/25 07:36:11;;;;;;;17.17;2.63;;;;;;;22.65;68.58;100957.16;5032301;28;20488;-73
2022/07/25 07:38:36;;;;;;;9.50;1.93;;;;;;;22.69;69.25;100963.88;5036692;28;20029;-74
2022/07/25 07:41:02;;;;;;;7.33;2.00;;;;;;;22.88;68.01;100959.50;5032576;28;20528;-75
2022/07/25 07:43:30;;;;;;;8.50;1.70;;;;;;;22.70;68.17;100973.94;5024815;28;20032;-72
2022/07/25 07:45:59;;;;;;;7.43;1.88;;;;;;;23.35;66.17;100966.59;5039737;28;20036;-75
2022/07/25 07:48:25;;;;;;;10.20;1.88;;;;;;;22.96;67.04;100970.97;5028382;28;20445;-73
2022/07/25 07:50:50;;;;;;;10.45;2.22;;;;;;;23.21;66.43;100975.81;5032368;28;20060;-74
2022/07/25 07:53:16;;;;;;;8.40;2.50;;;;;;;23.21;66.25;100967.41;5035205;28;20452;-73
2022/07/25 07:55:44;;;;;;;9.20;2.40;;;;;;;23.53;65.21;100957.66;5028231;28;20401;-73
2022/07/25 07:58:11;;;;;;;13.52;2.08;;;;;;;23.36;65.26;100961.84;5035290;28;20098;-73
2022/07/25 08:00:38;;;;;;;11.38;2.40;;;;;;;23.04;65.92;100959.25;5039595;28;20059;-74
2022/07/25 08:03:06;;;;;;;18.98;2.63;;;;;;;23.07;65.84;100950.31;5038342;28;20093;-74
2022/07/25 08:05:35;;;;;;;11.82;2.00;;;;;;;23.31;64.97;100970.25;5042356;28;20061;-75
2022/07/25 08:08:01;;;;;;;12.77;2.40;;;;;;;23.63;64.70;100968.84;5042830;28;20116;-75
2022/07/25 08:10:29;;;;;;;12.63;2.30;;;;;;;23.61;64.81;100961.84;5047374;28;20116;-74
2022/07/25 08:12:55;;;;;;;12.15;2.20;;;;;;;23.50;64.59;100974.16;5045090;28;20029;-74
2022/07/25 08:15:21;;;;;;;4.40;2.00;;;;;;;23.46;64.49;100971.06;5040436;28;20044;-74
2022/07/25 08:17:49;;;;;;;9.98;2.17;;;;;;;23.73;63.67;100965.19;5036412;28;20040;-74
2022/07/25 08:20:15;;;;;;;9.65;2.63;;;;;;;23.74;63.66;100959.31;5035979;28;20063;-74
2022/07/25 08:22:43;;;;;;;11.60;1.58;;;;;;;23.84;63.77;100952.91;5035413;28;20563;-73
2022/07/25 08:25:11;;;;;;;5.18;2.08;;;;;;;23.61;66.06;100967.44;5048428;28;20118;-73
2022/07/25 08:27:37;;;;;;;11.73;2.42;;;;;;;23.51;65.98;100973.03;5040767;28;20036;-73
2022/07/25 08:30:07;;;;;;;6.10;2.07;;;;;;;23.33;67.59;100956.81;5032903;28;20131;-73
2022/07/25 08:32:33;;;;;;;7.13;1.98;;;;;;;23.36;67.54;100959.06;5029851;28;20033;-73
2022/07/25 08:35:00;;;;;;;9.18;2.00;;;;;;;23.35;66.11;100968.53;5032765;28;20037;-73
2022/07/25 08:37:26;;;;;;;12.93;2.60;;;;;;;23.12;65.80;100972.69;5029880;28;20120;-72
2022/07/25 08:39:51;;;;;;;5.43;2.20;;;;;;;23.27;65.68;100971.91;5033615;28;20553;-73
2022/07/25 08:42:19;;;;;;;13.80;1.90;;;;;;;23.12;65.82;100966.25;5036891;28;20026;-74
2022/07/25 08:44:54;;;;;;;10.30;2.30;;;;;;;23.18;63.57;100973.56;5030225;28;20136;-73
2022/07/25 08:47:20;;;;;;;9.63;2.40;;;;;;;23.68;62.93;100982.00;5036283;28;20029;-74
2022/07/25 08:49:45;;;;;;;9.00;2.55;;;;;;;23.40;63.53;100979.72;5031130;28;20148;-74
2022/07/25 08:52:11;;;;;;;7.17;2.37;;;;;;;23.92;61.80;100981.19;5030584;28;20108;-74
2022/07/25 08:54:37;;;;;;;8.48;2.35;;;;;;;23.69;61.60;100967.72;5038962;28;20025;-72
2022/07/25 08:57:02;;;;;;;8.93;1.90;;;;;;;24.13;60.67;100974.44;5035944;28;20021;-74
2022/07/25 08:59:30;;;;;;;9.07;2.33;;;;;;;24.32;60.43;100974.66;5037574;28;20469;-74
2022/07/25 09:01:57;;;;;;;9.75;2.08;;;;;;;25.05;57.94;100987.81;5033253;28;20033;-75
2022/07/25 09:04:23;;;;;;;10.40;2.55;;;;;;;25.02;57.08;100982.81;5041285;28;20095;-74
2022/07/25 09:06:50;;;;;;;8.95;2.17;;;;;;;25.12;55.52;100979.94;5035563;28;20029;-75
2022/07/25 09:09:15;;;;;;;9.63;2.15;;;;;;;25.44;54.76;100963.50;5030303;28;20044;-73
2022/07/25 09:11:40;;;;;;;13.07;1.90;;;;;;;25.60;55.06;100971.47;5042842;28;20228;-74
2022/07/25 09:14:09;;;;;;;8.57;2.20;;;;;;;26.14;53.62;100969.31;5044913;28;20060;-76
2022/07/25 09:16:37;;;;;;;9.00;2.30;;;;;;;26.00;53.67;100987.16;5031475;28;20030;-75
2022/07/25 09:19:15;;;;;;;6.10;1.98;;;;;;;26.12;50.74;100970.75;5033032;28;20360;-74
2022/07/25 09:21:42;;;;;;;14.43;1.83;;;;;;;26.19;50.67;100983.31;5036015;28;20120;-74
2022/07/25 09:24:09;;;;;;;8.90;2.22;;;;;;;25.42;52.19;100977.81;5042036;28;20160;-75
2022/07/25 09:27:08;;;;;;;9.50;1.90;;;;;;;25.23;52.16;100984.34;5033447;28;20036;-73
2022/07/25 09:29:35;;;;;;;10.40;1.50;;;;;;;24.82;52.35;100994.13;5020910;28;20045;-74
2022/07/25 09:32:12;;;;;;;8.18;1.90;;;;;;;24.75;54.06;100999.19;5044164;28;20032;-73
2022/07/25 09:34:39;;;;;;;5.85;2.00;;;;;;;24.34;53.95;101003.22;5030382;28;20041;-75
2022/07/25 09:37:08;;;;;;;15.55;2.28;;;;;;;24.79;53.82;101001.13;5032886;28;20040;-73
2022/07/25 09:39:39;;;;;;;8.88;2.08;;;;;;;25.44;52.32;101008.38;5048012;28;20032;-74
2022/07/25 09:42:21;;;;;;;9.82;2.42;;;;;;;25.62;50.61;101016.09;5036160;28;20025;-73
2022/07/25 09:45:00;;;;;;;12.93;2.33;;;;;;;25.60;50.96;101004.34;5037445;28;20029;-73
2022/07/25 09:47:26;;;;;;;14.45;2.10;;;;;;;25.42;50.82;101011.47;5038431;28;20748;-74
2022/07/25 09:49:51;;;;;;;5.63;2.08;;;;;;;25.30;50.32;101030.59;5044531;28;20115;-73
2022/07/25 09:52:17;;;;;;;12.50;2.67;;;;;;;25.43;50.27;101029.97;5034184;28;20108;-73
2022/07/25 09:54:43;;;;;;;18.50;1.90;;;;;;;25.51;50.44;101034.94;5036300;28;20040;-74
2022/07/25 09:57:09;;;;;;;12.65;1.80;;;;;;;25.13;51.50;101040.50;5031957;28;20030;-75
2022/07/25 09:59:35;;;;;;;8.07;2.10;;;;;;;24.92;52.02;101038.91;5035118;28;20164;-73
2022/07/25 10:02:15;;;;;;;9.65;2.20;;;;;;;25.01;52.06;101043.63;5013877;28;20099;-75
2022/07/25 10:04:55;;;;;;;12.02;2.65;;;;;;;24.77;53.63;101041.78;5029044;28;20036;-75
2022/07/25 10:07:22;;;;;;;12.60;3.45;;;;;;;24.52;54.14;101037.06;5026200;28;20033;-74
2022/07/25 10:09:50;;;;;;;10.75;2.65;;;;;;;24.60;54.52;101044.09;5034168;28;20029;-75
2022/07/25 10:12:21;;;;;;;7.85;2.33;;;;;;;24.29;54.60;101048.03;5034227;28;20124;-75
2022/07/25 10:15:07;;;;;;;12.50;2.70;;;;;;;24.53;54.85;101063.94;5032054;28;20045;-74
2022/07/25 10:17:33;;;;;;;10.18;2.53;;;;;;;24.53;55.31;101047.16;5035185;28;20056;-76
2022/07/25 10:20:00;;;;;;;;;;;;;;;25.37;52.96;101050.78;5030232;28;20044;-77
2022/07/25 10:22:47;;;;;;;12.70;2.53;;;;;;;25.93;52.31;101056.88;5034341;28;20122;-75
2022/07/25 10:25:18;;;;;;;11.13;2.72;;;;;;;25.42;53.04;101058.31;5041918;28;20025;-77
2022/07/25 10:27:47;;;;;;;13.10;2.53;;;;;;;25.28;53.71;101060.91;5039620;28;20087;-74
2022/07/25 10:30:26;;;;;;;11.10;3.60;;;;;;;24.90;54.22;101063.56;5029804;28;20022;-77
2022/07/25 10:32:55;;;;;;;12.63;3.10;;;;;;;24.91;54.02;101054.06;5033291;28;20037;-74
2022/07/25 10:35:20;;;;;;;10.38;2.83;;;;;;;24.67;55.64;101065.09;5042562;28;20037;-74
2022/07/25 10:37:49;;;;;;;11.13;3.40;;;;;;;24.47;55.81;101059.50;5041211;28;20123;-75
2022/07/25 10:40:25;;;;;;;17.73;3.70;;;;;;;24.42;56.27;101072.66;5042799;28;20124;-74
2022/07/25 10:42:55;;;;;;;15.80;3.47;;;;;;;24.50;56.58;101083.28;5047594;28;20029;-74
2022/07/25 10:45:25;;;;;;;14.90;3.10;;;;;;;24.23;56.48;101085.56;5047521;28;20447;-75
2022/07/25 10:47:54;;;;;;;10.65;2.92;;;;;;;24.60;55.19;101078.53;5042544;28;20111;-74
2022/07/25 10:50:22;;;;;;;11.20;3.05;;;;;;;24.80;54.70;101070.06;5037594;28;20108;-74
2022/07/25 10:52:58;;;;;;;12.43;2.67;;;;;;;24.74;54.48;101078.78;5026581;28;20034;-75
2022/07/25 10:55:23;;;;;;;15.18;3.00;;;;;;;24.64;55.02;101087.22;5032153;28;20567;-76
2022/07/25 10:58:05;;;;;;;14.93;3.17;;;;;;;24.75;53.71;101088.88;5027575;28;21268;-75
2022/07/25 11:00:31;;;;;;;14.25;2.65;;;;;;;24.40;54.38;101088.91;5026782;28;20033;-76
2022/07/25 11:02:57;;;;;;;12.45;3.08;;;;;;;24.35;54.60;101089.78;5028525;28;20075;-74
2022/07/25 11:05:22;;;;;;;12.00;2.67;;;;;;;24.12;55.63;101086.69;5028498;28;20022;-76
2022/07/25 11:07:51;;;;;;;6.17;2.17;;;;;;;23.99;56.07;101099.28;5027413;28;20029;-76
2022/07/25 11:10:25;;;;;;;13.25;2.78;;;;;;;24.07;56.13;101097.91;5028500;28;20029;-75
2022/07/25 11:12:50;;;;;;;6.80;2.70;;;;;;;23.88;55.57;101102.31;5033998;28;20440;-76
2022/07/25 11:15:21;;;;;;;11.30;2.60;;;;;;;23.68;56.05;101097.53;5026341;28;20040;-76
2022/07/25 11:17:54;;;;;;;12.18;2.33;;;;;;;23.66;56.55;101096.13;5024099;28;20032;-77
2022/07/25 11:20:19;;;;;;;19.17;2.78;;;;;;;23.72;55.84;101095.88;5031445;28;20163;-76